sensor_id;sensor_type;location;lat;lon;timestamp;pressure;altitude;pressure_sealevel;temperature;humidity
34235;BME280;20500;49.856;20.290;2022-09-27T00:02:30;97705.46;;;9.17;81.72
34235;BME280;20500;49.856;20.290;2022-09-27T00:05:36;97705.23;;;9.07;81.62
34235;BME280;20500;49.856;20.290;2022-09-27T00:08:42;97701.71;;;9.03;81.90
34235;BME280;20500;49.856;20.290;2022-09-27T00:11:47;97698.52;;;9.01;81.85
34235;BME280;20500;49.856;20.290;2022-09-27T00:14:53;97690.48;;;8.98;81.73
34235;BME280;20500;49.856;20.290;2022-09-27T00:17:58;97687.30;;;8.92;81.61
34235;BME280;20500;49.856;20.290;2022-09-27T00:21:09;97688.48;;;8.86;81.74
34235;BME280;20500;49.856;20.290;2022-09-27T00:24:16;97685.38;;;8.73;81.62
34235;BME280;20500;49.856;20.290;2022-09-27T00:27:23;97680.27;;;8.69;81.85
34235;BME280;20500;49.856;20.290;2022-09-27T00:30:29;97671.45;;;8.66;81.92
34235;BME280;20500;49.856;20.290;2022-09-27T00:33:34;97662.57;;;8.66;81.85
34235;BME280;20500;49.856;20.290;2022-09-27T00:36:40;97661.23;;;8.67;81.97
34235;BME280;20500;49.856;20.290;2022-09-27T00:39:45;97660.64;;;8.68;81.88
34235;BME280;20500;49.856;20.290;2022-09-27T00:42:50;97660.51;;;8.69;81.82
34235;BME280;20500;49.856;20.290;2022-09-27T00:45:59;97660.30;;;8.67;81.67
34235;BME280;20500;49.856;20.290;2022-09-27T00:49:12;97663.55;;;8.66;81.85
34235;BME280;20500;49.856;20.290;2022-09-27T00:52:24;97660.38;;;8.65;81.70
34235;BME280;20500;49.856;20.290;2022-09-27T00:55:36;97653.20;;;8.61;81.58
34235;BME280;20500;49.856;20.290;2022-09-27T00:58:45;97649.34;;;8.56;81.59
34235;BME280;20500;49.856;20.290;2022-09-27T01:01:53;97643.45;;;8.52;81.63
34235;BME280;20500;49.856;20.290;2022-09-27T01:05:00;97636.52;;;8.49;81.66
34235;BME280;20500;49.856;20.290;2022-09-27T01:08:05;97633.45;;;8.46;81.50
34235;BME280;20500;49.856;20.290;2022-09-27T01:11:30;97631.48;;;8.40;81.66
34235;BME280;20500;49.856;20.290;2022-09-27T01:14:50;97633.07;;;8.30;81.68
34235;BME280;20500;49.856;20.290;2022-09-27T01:21:44;97624.93;;;8.26;81.77
34235;BME280;20500;49.856;20.290;2022-09-27T01:25:08;97616.88;;;8.26;81.69
34235;BME280;20500;49.856;20.290;2022-09-27T01:28:23;97610.23;;;8.22;81.61
34235;BME280;20500;49.856;20.290;2022-09-27T01:31:39;97607.02;;;8.14;81.46
34235;BME280;20500;49.856;20.290;2022-09-27T01:34:53;97605.80;;;8.09;81.70
34235;BME280;20500;49.856;20.290;2022-09-27T01:38:13;97606.36;;;8.04;81.68
34235;BME280;20500;49.856;20.290;2022-09-27T01:41:28;97603.90;;;8.03;81.82
34235;BME280;20500;49.856;20.290;2022-09-27T01:44:39;97601.40;;;8.02;81.73
34235;BME280;20500;49.856;20.290;2022-09-27T01:47:52;97598.25;;;7.96;81.46
34235;BME280;20500;49.856;20.290;2022-09-27T01:51:02;97587.27;;;7.84;81.52
34235;BME280;20500;49.856;20.290;2022-09-27T01:54:14;97591.48;;;7.79;81.64
34235;BME280;20500;49.856;20.290;2022-09-27T01:57:25;97600.00;;;7.80;81.73
34235;BME280;20500;49.856;20.290;2022-09-27T02:00:32;97598.58;;;7.81;81.58
34235;BME280;20500;49.856;20.290;2022-09-27T02:03:38;97590.55;;;7.82;81.65
34235;BME280;20500;49.856;20.290;2022-09-27T02:06:48;97587.70;;;7.79;81.53
34235;BME280;20500;49.856;20.290;2022-09-27T02:10:00;97587.98;;;7.76;81.58
34235;BME280;20500;49.856;20.290;2022-09-27T02:13:14;97587.05;;;7.77;81.57
34235;BME280;20500;49.856;20.290;2022-09-27T02:16:29;97587.77;;;7.75;81.52
34235;BME280;20500;49.856;20.290;2022-09-27T02:19:47;97583.62;;;7.71;81.22
34235;BME280;20500;49.856;20.290;2022-09-27T02:22:58;97573.71;;;7.66;81.33
34235;BME280;20500;49.856;20.290;2022-09-27T02:26:13;97567.06;;;7.61;81.28
34235;BME280;20500;49.856;20.290;2022-09-27T02:29:24;97569.55;;;7.59;81.40
34235;BME280;20500;49.856;20.290;2022-09-27T02:32:32;97567.98;;;7.54;81.33
34235;BME280;20500;49.856;20.290;2022-09-27T02:35:37;97568.82;;;7.48;81.11
34235;BME280;20500;49.856;20.290;2022-09-27T02:38:43;97572.16;;;7.42;81.28
34235;BME280;20500;49.856;20.290;2022-09-27T02:41:49;97571.66;;;7.36;81.28
34235;BME280;20500;49.856;20.290;2022-09-27T02:44:55;97566.58;;;7.29;81.37
34235;BME280;20500;49.856;20.290;2022-09-27T02:48:07;97561.59;;;7.24;81.29
34235;BME280;20500;49.856;20.290;2022-09-27T02:51:28;97554.13;;;7.18;81.29
34235;BME280;20500;49.856;20.290;2022-09-27T02:54:46;97545.66;;;7.08;81.37
34235;BME280;20500;49.856;20.290;2022-09-27T02:58:06;97539.23;;;7.06;81.54
34235;BME280;20500;49.856;20.290;2022-09-27T03:01:21;97536.52;;;7.03;81.43
34235;BME280;20500;49.856;20.290;2022-09-27T03:04:34;97531.29;;;7.02;81.33
34235;BME280;20500;49.856;20.290;2022-09-27T03:07:41;97529.54;;;6.96;81.23
34235;BME280;20500;49.856;20.290;2022-09-27T03:10:47;97529.95;;;6.89;81.32
34235;BME280;20500;49.856;20.290;2022-09-27T03:13:52;97527.45;;;6.82;81.45
34235;BME280;20500;49.856;20.290;2022-09-27T03:17:12;97530.52;;;6.82;81.76
34235;BME280;20500;49.856;20.290;2022-09-27T03:20:17;97523.14;;;6.85;81.66
34235;BME280;20500;49.856;20.290;2022-09-27T03:23:22;97529.58;;;6.83;81.60
34235;BME280;20500;49.856;20.290;2022-09-27T03:26:28;97529.16;;;6.83;81.66
34235;BME280;20500;49.856;20.290;2022-09-27T03:29:33;97532.30;;;6.87;81.67
34235;BME280;20500;49.856;20.290;2022-09-27T03:32:42;97528.47;;;6.92;81.64
34235;BME280;20500;49.856;20.290;2022-09-27T03:35:48;97532.55;;;6.94;81.66
34235;BME280;20500;49.856;20.290;2022-09-27T03:38:54;97528.62;;;6.95;81.64
34235;BME280;20500;49.856;20.290;2022-09-27T03:41:59;97524.36;;;6.94;81.56
34235;BME280;20500;49.856;20.290;2022-09-27T03:45:05;97523.67;;;6.91;81.39
34235;BME280;20500;49.856;20.290;2022-09-27T03:48:11;97523.66;;;6.90;81.48
34235;BME280;20500;49.856;20.290;2022-09-27T03:51:18;97523.80;;;6.90;81.55
34235;BME280;20500;49.856;20.290;2022-09-27T03:54:22;97526.15;;;6.87;81.38
34235;BME280;20500;49.856;20.290;2022-09-27T03:57:28;97517.90;;;6.80;81.42
34235;BME280;20500;49.856;20.290;2022-09-27T04:00:35;97513.02;;;6.73;81.43
34235;BME280;20500;49.856;20.290;2022-09-27T04:03:40;97508.70;;;6.68;81.31
34235;BME280;20500;49.856;20.290;2022-09-27T04:06:45;97508.41;;;6.64;81.20
34235;BME280;20500;49.856;20.290;2022-09-27T04:09:51;97511.77;;;6.60;81.44
34235;BME280;20500;49.856;20.290;2022-09-27T04:12:56;97514.89;;;6.58;81.33
34235;BME280;20500;49.856;20.290;2022-09-27T04:16:02;97509.77;;;6.54;81.29
34235;BME280;20500;49.856;20.290;2022-09-27T04:19:08;97511.11;;;6.44;81.27
34235;BME280;20500;49.856;20.290;2022-09-27T04:22:12;97504.33;;;6.39;81.20
34235;BME280;20500;49.856;20.290;2022-09-27T04:25:18;97504.86;;;6.39;81.53
34235;BME280;20500;49.856;20.290;2022-09-27T04:28:24;97505.67;;;6.37;81.36
34235;BME280;20500;49.856;20.290;2022-09-27T04:31:31;97506.37;;;6.34;81.38
34235;BME280;20500;49.856;20.290;2022-09-27T04:34:36;97502.41;;;6.30;81.22
34235;BME280;20500;49.856;20.290;2022-09-27T04:37:59;97493.87;;;6.29;81.56
34235;BME280;20500;49.856;20.290;2022-09-27T04:41:05;97486.96;;;6.27;81.24
34235;BME280;20500;49.856;20.290;2022-09-27T04:44:10;97494.98;;;6.26;81.42
34235;BME280;20500;49.856;20.290;2022-09-27T04:47:16;97496.25;;;6.24;81.30
34235;BME280;20500;49.856;20.290;2022-09-27T04:50:24;97492.88;;;6.16;81.18
34235;BME280;20500;49.856;20.290;2022-09-27T04:53:29;97487.42;;;6.10;81.54
34235;BME280;20500;49.856;20.290;2022-09-27T04:56:35;97490.27;;;6.09;81.48
34235;BME280;20500;49.856;20.290;2022-09-27T04:59:40;97492.77;;;6.08;81.51
34235;BME280;20500;49.856;20.290;2022-09-27T05:02:46;97492.84;;;6.08;81.43
34235;BME280;20500;49.856;20.290;2022-09-27T05:05:52;97494.55;;;6.09;81.44
34235;BME280;20500;49.856;20.290;2022-09-27T05:08:58;97489.52;;;6.09;81.56
34235;BME280;20500;49.856;20.290;2022-09-27T05:12:04;97485.86;;;6.08;81.37
34235;BME280;20500;49.856;20.290;2022-09-27T05:15:11;97478.67;;;6.08;81.57
34235;BME280;20500;49.856;20.290;2022-09-27T05:18:16;97470.77;;;6.08;81.43
34235;BME280;20500;49.856;20.290;2022-09-27T05:21:22;97467.36;;;6.07;81.50
34235;BME280;20500;49.856;20.290;2022-09-27T05:24:27;97457.52;;;6.04;81.53
34235;BME280;20500;49.856;20.290;2022-09-27T05:27:33;97450.14;;;6.06;81.59
34235;BME280;20500;49.856;20.290;2022-09-27T05:30:38;97454.61;;;6.08;81.66
34235;BME280;20500;49.856;20.290;2022-09-27T05:33:44;97457.41;;;6.10;81.75
34235;BME280;20500;49.856;20.290;2022-09-27T05:36:49;97452.36;;;6.11;81.71
34235;BME280;20500;49.856;20.290;2022-09-27T05:39:55;97449.00;;;6.04;81.64
34235;BME280;20500;49.856;20.290;2022-09-27T05:43:00;97455.16;;;6.00;81.89
34235;BME280;20500;49.856;20.290;2022-09-27T05:46:05;97450.05;;;6.02;81.68
34235;BME280;20500;49.856;20.290;2022-09-27T05:49:11;97449.34;;;6.05;82.11
34235;BME280;20500;49.856;20.290;2022-09-27T05:52:16;97443.00;;;6.11;82.15
34235;BME280;20500;49.856;20.290;2022-09-27T05:55:24;97436.09;;;6.15;82.17
34235;BME280;20500;49.856;20.290;2022-09-27T05:58:30;97434.45;;;6.16;81.96
34235;BME280;20500;49.856;20.290;2022-09-27T06:01:35;97428.33;;;6.16;81.98
34235;BME280;20500;49.856;20.290;2022-09-27T06:04:40;97422.02;;;6.16;82.17
34235;BME280;20500;49.856;20.290;2022-09-27T06:07:46;97428.35;;;6.19;82.26
34235;BME280;20500;49.856;20.290;2022-09-27T06:11:01;97431.38;;;6.23;82.29
34235;BME280;20500;49.856;20.290;2022-09-27T06:14:07;97433.00;;;6.26;82.47
34235;BME280;20500;49.856;20.290;2022-09-27T06:17:12;97436.27;;;6.31;82.58
34235;BME280;20500;49.856;20.290;2022-09-27T06:20:18;97439.08;;;6.39;82.90
34235;BME280;20500;49.856;20.290;2022-09-27T06:23:23;97438.30;;;6.51;83.20
34235;BME280;20500;49.856;20.290;2022-09-27T06:26:29;97440.08;;;6.65;83.51
34235;BME280;20500;49.856;20.290;2022-09-27T06:29:35;97434.17;;;6.80;83.57
34235;BME280;20500;49.856;20.290;2022-09-27T06:32:40;97431.73;;;6.95;83.67
34235;BME280;20500;49.856;20.290;2022-09-27T06:35:46;97430.48;;;7.08;83.63
34235;BME280;20500;49.856;20.290;2022-09-27T06:38:53;97429.76;;;7.24;83.75
34235;BME280;20500;49.856;20.290;2022-09-27T06:41:58;97429.04;;;7.39;83.95
34235;BME280;20500;49.856;20.290;2022-09-27T06:45:05;97427.30;;;7.53;84.14
34235;BME280;20500;49.856;20.290;2022-09-27T06:48:11;97427.05;;;7.67;84.20
34235;BME280;20500;49.856;20.290;2022-09-27T06:51:17;97422.63;;;7.82;84.37
34235;BME280;20500;49.856;20.290;2022-09-27T06:54:23;97428.71;;;7.97;84.51
34235;BME280;20500;49.856;20.290;2022-09-27T06:57:28;97431.58;;;8.12;84.70
34235;BME280;20500;49.856;20.290;2022-09-27T07:00:52;97431.54;;;8.28;84.97
34235;BME280;20500;49.856;20.290;2022-09-27T07:03:58;97426.90;;;8.44;85.05
34235;BME280;20500;49.856;20.290;2022-09-27T07:07:03;97419.64;;;8.59;85.16
34235;BME280;20500;49.856;20.290;2022-09-27T07:10:10;97418.49;;;8.72;85.03
34235;BME280;20500;49.856;20.290;2022-09-27T07:13:15;97417.59;;;8.87;85.39
34235;BME280;20500;49.856;20.290;2022-09-27T07:16:20;97419.23;;;9.02;85.45
34235;BME280;20500;49.856;20.290;2022-09-27T07:19:26;97413.89;;;9.17;85.64
34235;BME280;20500;49.856;20.290;2022-09-27T07:22:31;97413.92;;;9.31;85.53
34235;BME280;20500;49.856;20.290;2022-09-27T07:25:37;97416.08;;;9.45;85.78
34235;BME280;20500;49.856;20.290;2022-09-27T07:28:42;97417.65;;;9.59;85.70
34235;BME280;20500;49.856;20.290;2022-09-27T07:31:48;97412.73;;;9.72;85.90
34235;BME280;20500;49.856;20.290;2022-09-27T07:34:53;97411.73;;;9.85;85.97
34235;BME280;20500;49.856;20.290;2022-09-27T07:37:58;97414.20;;;10.00;86.19
34235;BME280;20500;49.856;20.290;2022-09-27T07:41:07;97415.39;;;10.15;86.44
34235;BME280;20500;49.856;20.290;2022-09-27T07:44:14;97410.27;;;10.32;86.38
34235;BME280;20500;49.856;20.290;2022-09-27T07:47:19;97406.86;;;10.47;86.36
34235;BME280;20500;49.856;20.290;2022-09-27T07:50:27;97408.61;;;10.62;86.76
34235;BME280;20500;49.856;20.290;2022-09-27T07:53:31;97409.45;;;10.79;86.71
34235;BME280;20500;49.856;20.290;2022-09-27T07:56:37;97402.92;;;10.96;86.87
34235;BME280;20500;49.856;20.290;2022-09-27T07:59:42;97398.02;;;11.15;86.92
34235;BME280;20500;49.856;20.290;2022-09-27T08:02:48;97396.77;;;11.31;87.00
34235;BME280;20500;49.856;20.290;2022-09-27T08:05:53;97396.09;;;11.47;87.26
34235;BME280;20500;49.856;20.290;2022-09-27T08:08:59;97392.41;;;11.64;87.19
34235;BME280;20500;49.856;20.290;2022-09-27T08:12:05;97388.67;;;11.77;86.98
34235;BME280;20500;49.856;20.290;2022-09-27T08:15:11;97387.45;;;11.90;87.13
34235;BME280;20500;49.856;20.290;2022-09-27T08:18:16;97390.09;;;12.06;87.14
34235;BME280;20500;49.856;20.290;2022-09-27T08:21:25;97385.45;;;12.18;87.00
34235;BME280;20500;49.856;20.290;2022-09-27T08:24:30;97381.88;;;12.29;86.67
34235;BME280;20500;49.856;20.290;2022-09-27T08:27:35;97377.11;;;12.38;86.60
34235;BME280;20500;49.856;20.290;2022-09-27T08:30:41;97371.88;;;12.47;86.49
34235;BME280;20500;49.856;20.290;2022-09-27T08:33:49;97367.73;;;12.57;86.38
34235;BME280;20500;49.856;20.290;2022-09-27T08:36:54;97369.11;;;12.69;86.58
34235;BME280;20500;49.856;20.290;2022-09-27T08:40:00;97372.25;;;12.81;86.54
34235;BME280;20500;49.856;20.290;2022-09-27T08:43:13;97372.02;;;12.93;86.38
34235;BME280;20500;49.856;20.290;2022-09-27T08:46:30;97369.64;;;13.04;86.12
34235;BME280;20500;49.856;20.290;2022-09-27T08:49:42;97363.73;;;13.16;86.30
34235;BME280;20500;49.856;20.290;2022-09-27T08:52:53;97358.49;;;13.25;85.96
34235;BME280;20500;49.856;20.290;2022-09-27T08:56:01;97360.33;;;13.37;86.21
34235;BME280;20500;49.856;20.290;2022-09-27T08:59:13;97371.61;;;13.54;86.23
34235;BME280;20500;49.856;20.290;2022-09-27T09:02:24;97374.09;;;13.69;86.23
34235;BME280;20500;49.856;20.290;2022-09-27T09:05:32;97369.79;;;13.82;86.15
34235;BME280;20500;49.856;20.290;2022-09-27T09:08:45;97368.24;;;13.95;85.97
34235;BME280;20500;49.856;20.290;2022-09-27T09:12:02;97362.04;;;14.06;85.55
34235;BME280;20500;49.856;20.290;2022-09-27T09:15:34;97356.16;;;14.20;85.47
34235;BME280;20500;49.856;20.290;2022-09-27T09:19:09;97352.89;;;14.31;85.32
34235;BME280;20500;49.856;20.290;2022-09-27T09:22:37;97348.45;;;14.41;84.81
34235;BME280;20500;49.856;20.290;2022-09-27T09:25:51;97340.20;;;14.50;84.88
34235;BME280;20500;49.856;20.290;2022-09-27T09:29:18;97335.83;;;14.61;84.83
34235;BME280;20500;49.856;20.290;2022-09-27T09:32:36;97329.46;;;14.71;84.74
34235;BME280;20500;49.856;20.290;2022-09-27T09:35:52;97324.18;;;14.81;84.29
34235;BME280;20500;49.856;20.290;2022-09-27T09:39:07;97316.06;;;14.88;84.29
34235;BME280;20500;49.856;20.290;2022-09-27T09:42:21;97312.65;;;14.99;84.31
34235;BME280;20500;49.856;20.290;2022-09-27T09:45:31;97310.99;;;15.10;84.14
34235;BME280;20500;49.856;20.290;2022-09-27T09:48:43;97307.41;;;15.22;83.76
34235;BME280;20500;49.856;20.290;2022-09-27T09:51:52;97298.76;;;15.31;83.71
34235;BME280;20500;49.856;20.290;2022-09-27T09:55:05;97294.14;;;15.40;83.41
34235;BME280;20500;49.856;20.290;2022-09-27T09:58:21;97282.41;;;15.50;83.16
34235;BME280;20500;49.856;20.290;2022-09-27T10:01:32;97280.58;;;15.63;82.85
34235;BME280;20500;49.856;20.290;2022-09-27T10:04:38;97275.84;;;15.74;82.82
34235;BME280;20500;49.856;20.290;2022-09-27T10:07:44;97275.05;;;15.88;82.38
34235;BME280;20500;49.856;20.290;2022-09-27T10:10:51;97266.68;;;16.03;82.20
34235;BME280;20500;49.856;20.290;2022-09-27T10:13:56;97267.31;;;16.14;81.74
34235;BME280;20500;49.856;20.290;2022-09-27T10:17:05;97264.34;;;16.25;81.51
34235;BME280;20500;49.856;20.290;2022-09-27T10:20:24;97257.06;;;16.38;81.24
34235;BME280;20500;49.856;20.290;2022-09-27T10:23:30;97253.38;;;16.51;80.81
34235;BME280;20500;49.856;20.290;2022-09-27T10:26:37;97252.01;;;16.62;80.28
34235;BME280;20500;49.856;20.290;2022-09-27T10:29:43;97245.71;;;16.72;80.31
34235;BME280;20500;49.856;20.290;2022-09-27T10:32:52;97243.81;;;16.87;80.04
34235;BME280;20500;49.856;20.290;2022-09-27T10:36:01;97238.28;;;17.01;79.98
34235;BME280;20500;49.856;20.290;2022-09-27T10:39:09;97242.56;;;17.12;79.42
34235;BME280;20500;49.856;20.290;2022-09-27T10:42:33;97241.45;;;17.28;79.21
34235;BME280;20500;49.856;20.290;2022-09-27T10:45:39;97241.67;;;17.45;78.70
34235;BME280;20500;49.856;20.290;2022-09-27T10:48:45;97245.02;;;17.58;78.48
34235;BME280;20500;49.856;20.290;2022-09-27T10:51:53;97245.91;;;17.66;77.82
34235;BME280;20500;49.856;20.290;2022-09-27T10:55:04;97246.09;;;17.74;77.35
34235;BME280;20500;49.856;20.290;2022-09-27T10:58:18;97238.34;;;17.72;77.03
34235;BME280;20500;49.856;20.290;2022-09-27T11:01:25;97234.73;;;17.62;76.52
34235;BME280;20500;49.856;20.290;2022-09-27T11:04:34;97226.81;;;17.63;76.56
34235;BME280;20500;49.856;20.290;2022-09-27T11:08:20;97221.16;;;17.71;76.31
34235;BME280;20500;49.856;20.290;2022-09-27T11:11:28;97214.48;;;17.82;75.89
34235;BME280;20500;49.856;20.290;2022-09-27T11:14:34;97210.58;;;17.86;75.75
34235;BME280;20500;49.856;20.290;2022-09-27T11:17:46;97204.75;;;17.92;75.52
34235;BME280;20500;49.856;20.290;2022-09-27T11:21:01;97203.25;;;18.02;75.65
34235;BME280;20500;49.856;20.290;2022-09-27T11:24:22;97200.39;;;18.18;75.28
34235;BME280;20500;49.856;20.290;2022-09-27T11:27:39;97198.40;;;18.29;74.77
34235;BME280;20500;49.856;20.290;2022-09-27T11:30:55;97193.27;;;18.28;74.18
34235;BME280;20500;49.856;20.290;2022-09-27T11:34:25;97184.11;;;18.35;74.12
34235;BME280;20500;49.856;20.290;2022-09-27T11:37:42;97181.81;;;18.50;74.16
34235;BME280;20500;49.856;20.290;2022-09-27T11:41:04;97178.61;;;18.61;73.55
34235;BME280;20500;49.856;20.290;2022-09-27T11:44:26;97180.73;;;18.68;73.37
34235;BME280;20500;49.856;20.290;2022-09-27T11:47:44;97179.59;;;18.73;72.75
34235;BME280;20500;49.856;20.290;2022-09-27T11:51:05;97179.55;;;18.80;72.61
34235;BME280;20500;49.856;20.290;2022-09-27T11:54:27;97182.08;;;19.00;72.54
34235;BME280;20500;49.856;20.290;2022-09-27T11:57:40;97177.08;;;19.17;72.07
34235;BME280;20500;49.856;20.290;2022-09-27T12:01:03;97174.60;;;19.16;71.23
34235;BME280;20500;49.856;20.290;2022-09-27T12:04:25;97177.25;;;19.04;70.94
34235;BME280;20500;49.856;20.290;2022-09-27T12:07:36;97171.30;;;18.95;71.08
34235;BME280;20500;49.856;20.290;2022-09-27T12:10:50;97171.39;;;18.83;70.61
34235;BME280;20500;49.856;20.290;2022-09-27T12:14:00;97166.95;;;18.69;70.46
34235;BME280;20500;49.856;20.290;2022-09-27T12:17:10;97163.81;;;18.64;70.46
34235;BME280;20500;49.856;20.290;2022-09-27T12:20:22;97159.81;;;18.56;70.18
34235;BME280;20500;49.856;20.290;2022-09-27T12:23:35;97153.48;;;18.52;70.31
34235;BME280;20500;49.856;20.290;2022-09-27T12:26:44;97149.20;;;18.49;69.90
34235;BME280;20500;49.856;20.290;2022-09-27T12:29:53;97145.41;;;18.44;69.86
34235;BME280;20500;49.856;20.290;2022-09-27T12:33:05;97143.64;;;18.47;69.75
34235;BME280;20500;49.856;20.290;2022-09-27T12:36:17;97138.68;;;18.48;69.62
34235;BME280;20500;49.856;20.290;2022-09-27T12:39:27;97132.73;;;18.44;69.16
34235;BME280;20500;49.856;20.290;2022-09-27T12:42:37;97130.00;;;18.41;69.00
34235;BME280;20500;49.856;20.290;2022-09-27T12:45:53;97126.91;;;18.39;69.07
34235;BME280;20500;49.856;20.290;2022-09-27T12:49:09;97122.78;;;18.39;68.62
34235;BME280;20500;49.856;20.290;2022-09-27T12:52:20;97115.64;;;18.47;68.83
34235;BME280;20500;49.856;20.290;2022-09-27T12:55:48;97117.00;;;18.56;68.95
34235;BME280;20500;49.856;20.290;2022-09-27T12:59:14;97109.24;;;18.66;68.60
34235;BME280;20500;49.856;20.290;2022-09-27T13:06:33;97095.84;;;18.73;67.98
34235;BME280;20500;49.856;20.290;2022-09-27T13:13:21;97095.62;;;18.78;67.79
34235;BME280;20500;49.856;20.290;2022-09-27T13:16:29;97091.13;;;18.79;67.55
34235;BME280;20500;49.856;20.290;2022-09-27T13:19:41;97088.04;;;18.82;67.95
34235;BME280;20500;49.856;20.290;2022-09-27T13:22:47;97083.00;;;18.83;67.70
34235;BME280;20500;49.856;20.290;2022-09-27T13:25:54;97077.77;;;18.68;67.23
34235;BME280;20500;49.856;20.290;2022-09-27T13:29:02;97074.44;;;18.57;67.40
34235;BME280;20500;49.856;20.290;2022-09-27T13:32:19;97076.02;;;18.50;67.10
34235;BME280;20500;49.856;20.290;2022-09-27T13:35:27;97078.14;;;18.44;67.14
34235;BME280;20500;49.856;20.290;2022-09-27T13:38:33;97080.18;;;18.42;67.33
34235;BME280;20500;49.856;20.290;2022-09-27T13:41:55;97083.08;;;18.38;67.19
34235;BME280;20500;49.856;20.290;2022-09-27T13:45:19;97083.59;;;18.33;67.07
34235;BME280;20500;49.856;20.290;2022-09-27T13:48:31;97086.08;;;18.29;67.37
34235;BME280;20500;49.856;20.290;2022-09-27T13:51:45;97082.50;;;18.22;67.39
34235;BME280;20500;49.856;20.290;2022-09-27T13:54:56;97084.06;;;18.18;67.55
34235;BME280;20500;49.856;20.290;2022-09-27T13:58:06;97088.25;;;18.15;67.41
34235;BME280;20500;49.856;20.290;2022-09-27T14:01:23;97088.48;;;18.14;67.53
34235;BME280;20500;49.856;20.290;2022-09-27T14:04:36;97086.73;;;18.10;67.49
34235;BME280;20500;49.856;20.290;2022-09-27T14:07:47;97085.45;;;18.11;67.74
34235;BME280;20500;49.856;20.290;2022-09-27T14:10:56;97082.97;;;18.12;67.54
34235;BME280;20500;49.856;20.290;2022-09-27T14:14:04;97080.71;;;18.11;67.67
34235;BME280;20500;49.856;20.290;2022-09-27T14:17:11;97074.90;;;18.09;67.79
34235;BME280;20500;49.856;20.290;2022-09-27T14:20:43;97071.66;;;18.02;67.72
34235;BME280;20500;49.856;20.290;2022-09-27T14:23:51;97070.47;;;17.88;67.70
34235;BME280;20500;49.856;20.290;2022-09-27T14:27:12;97069.94;;;17.78;67.71
34235;BME280;20500;49.856;20.290;2022-09-27T14:30:23;97070.58;;;17.66;67.79
34235;BME280;20500;49.856;20.290;2022-09-27T14:33:32;97071.59;;;17.56;68.05
34235;BME280;20500;49.856;20.290;2022-09-27T14:36:39;97062.83;;;17.46;68.03
34235;BME280;20500;49.856;20.290;2022-09-27T14:40:17;97064.98;;;17.35;67.99
34235;BME280;20500;49.856;20.290;2022-09-27T14:43:24;97069.33;;;17.27;68.22
34235;BME280;20500;49.856;20.290;2022-09-27T14:46:31;97064.02;;;17.19;68.43
34235;BME280;20500;49.856;20.290;2022-09-27T14:49:46;97062.21;;;17.14;68.59
34235;BME280;20500;49.856;20.290;2022-09-27T14:52:53;97060.00;;;17.07;68.57
34235;BME280;20500;49.856;20.290;2022-09-27T14:56:02;97059.66;;;17.01;68.65
34235;BME280;20500;49.856;20.290;2022-09-27T14:59:15;97058.56;;;16.97;68.85
34235;BME280;20500;49.856;20.290;2022-09-27T15:02:23;97056.64;;;16.95;68.94
34235;BME280;20500;49.856;20.290;2022-09-27T15:05:31;97054.77;;;16.92;68.95
34235;BME280;20500;49.856;20.290;2022-09-27T15:08:38;97053.70;;;16.89;69.17
34235;BME280;20500;49.856;20.290;2022-09-27T15:11:48;97055.80;;;16.86;69.33
34235;BME280;20500;49.856;20.290;2022-09-27T15:14:56;97051.77;;;16.81;69.18
34235;BME280;20500;49.856;20.290;2022-09-27T15:21:32;97046.88;;;16.70;69.20
34235;BME280;20500;49.856;20.290;2022-09-27T15:24:39;97049.22;;;16.64;69.32
34235;BME280;20500;49.856;20.290;2022-09-27T15:27:51;97051.52;;;16.59;69.43
34235;BME280;20500;49.856;20.290;2022-09-27T15:30:58;97051.71;;;16.54;69.40
34235;BME280;20500;49.856;20.290;2022-09-27T15:34:05;97051.70;;;16.48;69.46
34235;BME280;20500;49.856;20.290;2022-09-27T15:37:25;97052.05;;;16.43;69.46
34235;BME280;20500;49.856;20.290;2022-09-27T15:40:59;97054.50;;;16.35;69.53
34235;BME280;20500;49.856;20.290;2022-09-27T15:44:25;97049.52;;;16.25;69.47
34235;BME280;20500;49.856;20.290;2022-09-27T15:47:42;97058.41;;;16.15;69.47
34235;BME280;20500;49.856;20.290;2022-09-27T15:50:52;97060.74;;;16.06;69.64
34235;BME280;20500;49.856;20.290;2022-09-27T15:53:58;97064.11;;;15.99;69.79
34235;BME280;20500;49.856;20.290;2022-09-27T15:57:05;97069.45;;;15.91;69.71
34235;BME280;20500;49.856;20.290;2022-09-27T16:00:17;97072.25;;;15.85;69.86
34235;BME280;20500;49.856;20.290;2022-09-27T16:03:25;97081.31;;;15.78;69.74
34235;BME280;20500;49.856;20.290;2022-09-27T16:06:31;97083.19;;;15.70;69.81
34235;BME280;20500;49.856;20.290;2022-09-27T16:09:37;97091.22;;;15.64;69.94
34235;BME280;20500;49.856;20.290;2022-09-27T16:12:44;97105.95;;;15.58;69.96
34235;BME280;20500;49.856;20.290;2022-09-27T16:15:50;97141.66;;;15.55;70.12
34235;BME280;20500;49.856;20.290;2022-09-27T16:18:57;97148.87;;;15.43;69.99
34235;BME280;20500;49.856;20.290;2022-09-27T16:22:03;97155.11;;;15.25;70.42
34235;BME280;20500;49.856;20.290;2022-09-27T16:25:07;97151.96;;;15.14;70.53
34235;BME280;20500;49.856;20.290;2022-09-27T16:28:14;97162.55;;;14.97;70.64
34235;BME280;20500;49.856;20.290;2022-09-27T16:31:18;97173.47;;;14.72;70.54
34235;BME280;20500;49.856;20.290;2022-09-27T16:34:24;97183.06;;;14.42;70.48
34235;BME280;20500;49.856;20.290;2022-09-27T16:37:31;97184.75;;;14.25;70.67
34235;BME280;20500;49.856;20.290;2022-09-27T16:40:38;97184.49;;;14.11;70.80
34235;BME280;20500;49.856;20.290;2022-09-27T16:43:44;97181.63;;;13.96;70.77
34235;BME280;20500;49.856;20.290;2022-09-27T16:46:50;97181.33;;;13.80;70.88
34235;BME280;20500;49.856;20.290;2022-09-27T16:49:57;97184.53;;;13.68;71.04
34235;BME280;20500;49.856;20.290;2022-09-27T16:53:20;97189.30;;;13.62;71.44
34235;BME280;20500;49.856;20.290;2022-09-27T16:56:26;97189.94;;;13.62;71.41